EGLLEGKA

Guest
Details From EGLL - London Heathrow
To EGKA - Shoreham
Flight Number -
Tags decoded
Created
Modified
Stats Distance 45 nm / 83 km
Max Altitude 0 ft / 0 m
Waypoints 4
Social Downloads 3
Likes 0
Share VATSIM

Download

Looking for another format? Having issues loading an existing format? Contact us
Advertisement - Login to hide

Notes

Requested: EGLL OCK MID EGKA

Route

EGLL OCK MID EGKA

ID Type Via Altitude Latitude Longitude Leg Dist Tot Dist Heading (true) Name
O EGLL APT - 0 ft / 0 m 51.47122˚ -0.46098˚ - 0 nm - London Heathrow
OCK VOR - 0 ft / 0 m 51.30500˚ -0.44722˚ 9 nm 9 nm 177° / 177° OCKHAM VOR-DME
MID VOR - 0 ft / 0 m 51.05389˚ -0.62500˚ 16 nm 26 nm 204° / 204° MIDHURST VOR-DME
O EGKA APT - 0 ft / 0 m 50.83580˚ -0.29481˚ 18 nm 44 nm 136° / 136° Shoreham

Altitude Profile

Advertisement - Login to hide

EGLL

Details ICAO EGLL (LHR)
Name London Heathrow
Region United Kingdom
Timezone Europe/London (UTC+0.0)
Stats Elevation 83 ft / 25 m (AMSL)
Location 51.471218° -0.460978°
Runways 2
Magnetic Variation 0.558° W

METAR

EGLL 181020Z AUTO VRB03KT 9999 NCD 04/02 Q1030 NOSIG

Decode

TAF

TAF AMD EGLL 180955Z 1810/1912 34005KT 9999 FEW040 PROB30 TEMPO 1810/1812 6000 BECMG 1816/1819 5000 BR BECMG 1819/1822 2000 MIFG PROB30 1822/1824 0200 FG VV/// PROB40 1900/1903 0200 FG VV/// BECMG 1903/1906 0200 FG FZFG VV/// BECMG 1910/1912 1200 BR BKN003

Decode

Departure Runways

ID Width Length Bearing (true) Bearing (mag) Surface Threshold Offset Overrun Length
09L 164 ft / 50 m 12,811 ft / 3,905 m 89.64° 90.20° Asphalt 1,004 ft / 306 m 0 ft / 0 m
09R 164 ft / 50 m 12,019 ft / 3,663 m 89.67° 90.23° Asphalt 1,007 ft / 307 m 0 ft / 0 m
27L 164 ft / 50 m 12,019 ft / 3,663 m 269.71° 270.27° Asphalt 0 ft / 0 m 69 ft / 21 m
27R 164 ft / 50 m 12,811 ft / 3,905 m 269.69° 270.25° Asphalt 0 ft / 0 m 69 ft / 21 m

EGKA

Details ICAO EGKA (ESH)
Name Shoreham
Region United Kingdom
Timezone Europe/London (UTC+0.0)
Stats Elevation 7 ft / 2 m (AMSL)
Location 50.835805° -0.294806°
Runways 4
Magnetic Variation 0.432° W

METAR

EGKA 181020Z 35008KT CAVOK 04/02 Q1029

Decode

TAF

Not found

Destination Runways

ID Width Length Bearing (true) Bearing (mag) Surface Threshold Offset Overrun Length
02 59 ft / 18 m 3,408 ft / 1,039 m 21.56° 21.99° Asphalt 548 ft / 167 m 0 ft / 0 m
02R 59 ft / 18 m 2,849 ft / 868 m 21.56° 21.99° Grass 171 ft / 52 m 0 ft / 0 m
07 164 ft / 50 m 2,883 ft / 879 m 63.45° 63.88° Grass 0 ft / 0 m 0 ft / 0 m
13 59 ft / 18 m 1,739 ft / 530 m 124.90° 125.33° Grass 0 ft / 0 m 0 ft / 0 m
20 59 ft / 18 m 3,408 ft / 1,039 m 201.56° 201.99° Asphalt 367 ft / 112 m 0 ft / 0 m
20L 59 ft / 18 m 2,849 ft / 868 m 201.56° 201.99° Grass 171 ft / 52 m 0 ft / 0 m
25 164 ft / 50 m 2,883 ft / 879 m 243.46° 243.89° Grass 285 ft / 87 m 0 ft / 0 m
31 59 ft / 18 m 1,739 ft / 530 m 304.91° 305.34° Grass 394 ft / 120 m 0 ft / 0 m

Popular Alternatives